sensor_id;sensor_type;location;lat;lon;timestamp;P1;durP1;ratioP1;P2;durP2;ratioP2
20611;SDS011;10465;42.686;23.364;2023-05-16T00:01:52;19.20;;;16.45;;
20611;SDS011;10465;42.686;23.364;2023-05-16T00:04:18;19.73;;;15.55;;
20611;SDS011;10465;42.686;23.364;2023-05-16T00:06:44;22.30;;;16.40;;
20611;SDS011;10465;42.686;23.364;2023-05-16T00:09:09;19.20;;;16.13;;
20611;SDS011;10465;42.686;23.364;2023-05-16T00:11:35;20.00;;;16.42;;
20611;SDS011;10465;42.686;23.364;2023-05-16T00:14:01;22.85;;;16.13;;
20611;SDS011;10465;42.686;23.364;2023-05-16T00:16:27;20.08;;;15.23;;
20611;SDS011;10465;42.686;23.364;2023-05-16T00:18:54;21.73;;;16.42;;
20611;SDS011;10465;42.686;23.364;2023-05-16T00:21:21;19.20;;;16.55;;
20611;SDS011;10465;42.686;23.364;2023-05-16T00:23:47;21.95;;;16.13;;
20611;SDS011;10465;42.686;23.364;2023-05-16T00:26:12;19.38;;;15.50;;
20611;SDS011;10465;42.686;23.364;2023-05-16T00:28:38;21.95;;;15.95;;
20611;SDS011;10465;42.686;23.364;2023-05-16T00:31:03;19.35;;;15.30;;
20611;SDS011;10465;42.686;23.364;2023-05-16T00:33:29;20.77;;;15.77;;
20611;SDS011;10465;42.686;23.364;2023-05-16T00:35:55;20.42;;;16.60;;
20611;SDS011;10465;42.686;23.364;2023-05-16T00:38:20;16.38;;;14.63;;
20611;SDS011;10465;42.686;23.364;2023-05-16T00:40:46;18.17;;;14.98;;
20611;SDS011;10465;42.686;23.364;2023-05-16T00:43:11;18.50;;;15.55;;
20611;SDS011;10465;42.686;23.364;2023-05-16T00:45:37;21.38;;;15.43;;
20611;SDS011;10465;42.686;23.364;2023-05-16T00:48:02;18.05;;;15.15;;
20611;SDS011;10465;42.686;23.364;2023-05-16T00:50:28;19.08;;;15.32;;
20611;SDS011;10465;42.686;23.364;2023-05-16T00:52:53;21.48;;;16.40;;
20611;SDS011;10465;42.686;23.364;2023-05-16T00:55:19;20.52;;;16.23;;
20611;SDS011;10465;42.686;23.364;2023-05-16T00:57:45;21.08;;;15.80;;
20611;SDS011;10465;42.686;23.364;2023-05-16T01:00:10;20.42;;;17.05;;
20611;SDS011;10465;42.686;23.364;2023-05-16T01:02:38;19.83;;;16.38;;
20611;SDS011;10465;42.686;23.364;2023-05-16T01:05:04;20.45;;;16.58;;
20611;SDS011;10465;42.686;23.364;2023-05-16T01:07:30;22.70;;;16.77;;
20611;SDS011;10465;42.686;23.364;2023-05-16T01:09:56;20.67;;;16.85;;
20611;SDS011;10465;42.686;23.364;2023-05-16T01:12:36;23.98;;;16.30;;
20611;SDS011;10465;42.686;23.364;2023-05-16T01:15:12;20.55;;;15.80;;
20611;SDS011;10465;42.686;23.364;2023-05-16T01:23:11;20.05;;;15.10;;
20611;SDS011;10465;42.686;23.364;2023-05-16T01:25:57;19.50;;;15.15;;
20611;SDS011;10465;42.686;23.364;2023-05-16T01:29:00;19.27;;;15.25;;
20611;SDS011;10465;42.686;23.364;2023-05-16T01:31:27;18.13;;;13.95;;
20611;SDS011;10465;42.686;23.364;2023-05-16T01:33:53;21.27;;;13.50;;
20611;SDS011;10465;42.686;23.364;2023-05-16T01:36:25;17.95;;;13.75;;
20611;SDS011;10465;42.686;23.364;2023-05-16T01:44:32;16.98;;;13.82;;
20611;SDS011;10465;42.686;23.364;2023-05-16T01:47:02;16.00;;;12.88;;
20611;SDS011;10465;42.686;23.364;2023-05-16T01:49:43;19.13;;;13.52;;
20611;SDS011;10465;42.686;23.364;2023-05-16T01:52:15;16.90;;;13.65;;
20611;SDS011;10465;42.686;23.364;2023-05-16T01:54:47;17.30;;;13.20;;
20611;SDS011;10465;42.686;23.364;2023-05-16T01:57:16;16.75;;;14.20;;
20611;SDS011;10465;42.686;23.364;2023-05-16T01:59:43;15.95;;;13.02;;
20611;SDS011;10465;42.686;23.364;2023-05-16T02:02:09;16.23;;;13.75;;
20611;SDS011;10465;42.686;23.364;2023-05-16T02:04:35;18.25;;;13.65;;
20611;SDS011;10465;42.686;23.364;2023-05-16T02:07:00;15.05;;;12.77;;
20611;SDS011;10465;42.686;23.364;2023-05-16T02:09:26;15.93;;;13.75;;
20611;SDS011;10465;42.686;23.364;2023-05-16T02:11:52;16.17;;;13.65;;
20611;SDS011;10465;42.686;23.364;2023-05-16T02:14:17;17.17;;;13.88;;
20611;SDS011;10465;42.686;23.364;2023-05-16T02:16:43;20.27;;;13.70;;
20611;SDS011;10465;42.686;23.364;2023-05-16T02:19:08;16.67;;;12.60;;
20611;SDS011;10465;42.686;23.364;2023-05-16T02:21:34;15.63;;;13.90;;
20611;SDS011;10465;42.686;23.364;2023-05-16T02:24:00;15.65;;;13.23;;
20611;SDS011;10465;42.686;23.364;2023-05-16T02:26:25;17.52;;;13.25;;
20611;SDS011;10465;42.686;23.364;2023-05-16T02:28:51;16.15;;;13.55;;
20611;SDS011;10465;42.686;23.364;2023-05-16T02:31:29;17.80;;;13.55;;
20611;SDS011;10465;42.686;23.364;2023-05-16T02:33:56;16.15;;;13.95;;
20611;SDS011;10465;42.686;23.364;2023-05-16T02:36:22;17.58;;;13.73;;
20611;SDS011;10465;42.686;23.364;2023-05-16T02:38:48;20.95;;;13.52;;
20611;SDS011;10465;42.686;23.364;2023-05-16T02:41:14;14.88;;;12.32;;
20611;SDS011;10465;42.686;23.364;2023-05-16T02:43:39;17.05;;;12.68;;
20611;SDS011;10465;42.686;23.364;2023-05-16T02:46:18;16.38;;;12.63;;
20611;SDS011;10465;42.686;23.364;2023-05-16T02:48:48;16.08;;;12.88;;
20611;SDS011;10465;42.686;23.364;2023-05-16T02:51:14;15.27;;;12.40;;
20611;SDS011;10465;42.686;23.364;2023-05-16T02:53:40;15.48;;;13.45;;
20611;SDS011;10465;42.686;23.364;2023-05-16T02:56:05;18.77;;;13.38;;
20611;SDS011;10465;42.686;23.364;2023-05-16T02:58:31;16.25;;;12.10;;
20611;SDS011;10465;42.686;23.364;2023-05-16T03:00:57;15.32;;;12.90;;
20611;SDS011;10465;42.686;23.364;2023-05-16T03:03:22;15.43;;;12.73;;
20611;SDS011;10465;42.686;23.364;2023-05-16T03:05:48;15.75;;;12.38;;
20611;SDS011;10465;42.686;23.364;2023-05-16T03:08:14;15.32;;;11.80;;
20611;SDS011;10465;42.686;23.364;2023-05-16T03:10:39;16.95;;;12.38;;
20611;SDS011;10465;42.686;23.364;2023-05-16T03:13:05;16.75;;;13.18;;
20611;SDS011;10465;42.686;23.364;2023-05-16T03:15:30;15.25;;;13.15;;
20611;SDS011;10465;42.686;23.364;2023-05-16T03:17:56;14.85;;;12.32;;
20611;SDS011;10465;42.686;23.364;2023-05-16T03:20:21;15.38;;;12.60;;
20611;SDS011;10465;42.686;23.364;2023-05-16T03:22:47;16.35;;;13.45;;
20611;SDS011;10465;42.686;23.364;2023-05-16T03:25:12;13.50;;;11.90;;
20611;SDS011;10465;42.686;23.364;2023-05-16T03:27:38;18.95;;;12.73;;
20611;SDS011;10465;42.686;23.364;2023-05-16T03:30:03;18.15;;;12.75;;
20611;SDS011;10465;42.686;23.364;2023-05-16T03:32:30;17.45;;;12.82;;
20611;SDS011;10465;42.686;23.364;2023-05-16T03:34:55;16.92;;;13.05;;
20611;SDS011;10465;42.686;23.364;2023-05-16T03:37:21;22.55;;;13.25;;
20611;SDS011;10465;42.686;23.364;2023-05-16T03:39:46;16.23;;;12.85;;
20611;SDS011;10465;42.686;23.364;2023-05-16T03:42:11;17.08;;;13.15;;
20611;SDS011;10465;42.686;23.364;2023-05-16T03:44:37;14.70;;;13.20;;
20611;SDS011;10465;42.686;23.364;2023-05-16T03:47:03;18.88;;;13.13;;
20611;SDS011;10465;42.686;23.364;2023-05-16T03:49:29;21.65;;;13.52;;
20611;SDS011;10465;42.686;23.364;2023-05-16T03:51:54;17.65;;;13.57;;
20611;SDS011;10465;42.686;23.364;2023-05-16T03:54:20;19.38;;;14.10;;
20611;SDS011;10465;42.686;23.364;2023-05-16T03:56:46;17.60;;;13.75;;
20611;SDS011;10465;42.686;23.364;2023-05-16T03:59:11;22.55;;;14.23;;
20611;SDS011;10465;42.686;23.364;2023-05-16T04:01:37;18.02;;;14.40;;
20611;SDS011;10465;42.686;23.364;2023-05-16T04:04:02;19.88;;;15.02;;
20611;SDS011;10465;42.686;23.364;2023-05-16T04:06:28;18.33;;;14.43;;
20611;SDS011;10465;42.686;23.364;2023-05-16T04:08:53;20.73;;;15.40;;
20611;SDS011;10465;42.686;23.364;2023-05-16T04:11:19;18.98;;;14.68;;
20611;SDS011;10465;42.686;23.364;2023-05-16T04:13:45;19.15;;;15.40;;
20611;SDS011;10465;42.686;23.364;2023-05-16T04:16:10;20.67;;;16.08;;
20611;SDS011;10465;42.686;23.364;2023-05-16T04:18:36;22.83;;;16.27;;
20611;SDS011;10465;42.686;23.364;2023-05-16T04:21:02;18.83;;;13.55;;
20611;SDS011;10465;42.686;23.364;2023-05-16T04:23:27;19.88;;;14.50;;
20611;SDS011;10465;42.686;23.364;2023-05-16T04:25:53;20.02;;;14.88;;
20611;SDS011;10465;42.686;23.364;2023-05-16T04:28:21;23.80;;;16.52;;
20611;SDS011;10465;42.686;23.364;2023-05-16T04:30:46;23.15;;;15.52;;
20611;SDS011;10465;42.686;23.364;2023-05-16T04:33:12;23.20;;;15.60;;
20611;SDS011;10465;42.686;23.364;2023-05-16T04:35:38;21.33;;;15.20;;
20611;SDS011;10465;42.686;23.364;2023-05-16T04:38:03;20.08;;;14.45;;
20611;SDS011;10465;42.686;23.364;2023-05-16T04:40:29;20.77;;;14.23;;
20611;SDS011;10465;42.686;23.364;2023-05-16T04:42:55;20.58;;;14.00;;
20611;SDS011;10465;42.686;23.364;2023-05-16T04:45:20;18.63;;;14.02;;
20611;SDS011;10465;42.686;23.364;2023-05-16T04:47:45;21.92;;;14.77;;
20611;SDS011;10465;42.686;23.364;2023-05-16T04:50:11;20.67;;;15.25;;
20611;SDS011;10465;42.686;23.364;2023-05-16T04:52:36;18.17;;;14.63;;
20611;SDS011;10465;42.686;23.364;2023-05-16T04:55:02;20.58;;;14.88;;
20611;SDS011;10465;42.686;23.364;2023-05-16T04:57:28;16.92;;;13.43;;
20611;SDS011;10465;42.686;23.364;2023-05-16T04:59:53;19.48;;;15.40;;
20611;SDS011;10465;42.686;23.364;2023-05-16T05:02:19;19.02;;;14.70;;
20611;SDS011;10465;42.686;23.364;2023-05-16T05:04:44;23.67;;;16.40;;
20611;SDS011;10465;42.686;23.364;2023-05-16T05:07:10;19.95;;;16.17;;
20611;SDS011;10465;42.686;23.364;2023-05-16T05:09:36;20.45;;;14.27;;
20611;SDS011;10465;42.686;23.364;2023-05-16T05:12:01;18.35;;;14.30;;
20611;SDS011;10465;42.686;23.364;2023-05-16T05:14:27;18.58;;;14.57;;
20611;SDS011;10465;42.686;23.364;2023-05-16T05:16:53;18.60;;;14.48;;
20611;SDS011;10465;42.686;23.364;2023-05-16T05:19:18;18.63;;;14.30;;
20611;SDS011;10465;42.686;23.364;2023-05-16T05:21:44;21.00;;;14.48;;
20611;SDS011;10465;42.686;23.364;2023-05-16T05:24:09;20.40;;;15.10;;
20611;SDS011;10465;42.686;23.364;2023-05-16T05:26:35;18.23;;;15.15;;
20611;SDS011;10465;42.686;23.364;2023-05-16T05:29:00;23.15;;;15.18;;
20611;SDS011;10465;42.686;23.364;2023-05-16T05:31:26;20.23;;;14.75;;
20611;SDS011;10465;42.686;23.364;2023-05-16T05:33:51;21.63;;;15.40;;
20611;SDS011;10465;42.686;23.364;2023-05-16T05:36:17;19.75;;;14.25;;
20611;SDS011;10465;42.686;23.364;2023-05-16T05:38:42;24.35;;;16.85;;
20611;SDS011;10465;42.686;23.364;2023-05-16T05:41:08;22.67;;;15.55;;
20611;SDS011;10465;42.686;23.364;2023-05-16T05:43:35;21.67;;;16.88;;
20611;SDS011;10465;42.686;23.364;2023-05-16T05:46:01;22.20;;;15.95;;
20611;SDS011;10465;42.686;23.364;2023-05-16T05:48:26;20.02;;;15.25;;
20611;SDS011;10465;42.686;23.364;2023-05-16T05:50:53;18.10;;;13.82;;
20611;SDS011;10465;42.686;23.364;2023-05-16T05:53:19;21.92;;;14.85;;
20611;SDS011;10465;42.686;23.364;2023-05-16T05:55:45;20.08;;;15.70;;
20611;SDS011;10465;42.686;23.364;2023-05-16T05:58:11;17.98;;;14.40;;
20611;SDS011;10465;42.686;23.364;2023-05-16T06:00:36;20.50;;;14.05;;
20611;SDS011;10465;42.686;23.364;2023-05-16T06:03:02;17.15;;;12.43;;
20611;SDS011;10465;42.686;23.364;2023-05-16T06:05:27;20.20;;;12.52;;
20611;SDS011;10465;42.686;23.364;2023-05-16T06:07:53;19.80;;;13.95;;
20611;SDS011;10465;42.686;23.364;2023-05-16T06:10:18;21.02;;;12.63;;
20611;SDS011;10465;42.686;23.364;2023-05-16T06:12:43;21.27;;;12.88;;
20611;SDS011;10465;42.686;23.364;2023-05-16T06:15:09;19.67;;;13.07;;
20611;SDS011;10465;42.686;23.364;2023-05-16T06:17:35;18.45;;;12.90;;
20611;SDS011;10465;42.686;23.364;2023-05-16T06:20:00;18.42;;;12.70;;
20611;SDS011;10465;42.686;23.364;2023-05-16T06:22:26;16.17;;;13.20;;
20611;SDS011;10465;42.686;23.364;2023-05-16T06:24:52;20.67;;;13.30;;
20611;SDS011;10465;42.686;23.364;2023-05-16T06:27:17;21.40;;;14.25;;
20611;SDS011;10465;42.686;23.364;2023-05-16T06:29:43;15.68;;;12.55;;
20611;SDS011;10465;42.686;23.364;2023-05-16T06:32:08;19.83;;;13.65;;
20611;SDS011;10465;42.686;23.364;2023-05-16T06:34:34;18.83;;;12.80;;
20611;SDS011;10465;42.686;23.364;2023-05-16T06:36:59;16.70;;;13.02;;
20611;SDS011;10465;42.686;23.364;2023-05-16T06:39:27;20.70;;;13.68;;
20611;SDS011;10465;42.686;23.364;2023-05-16T06:41:53;20.77;;;13.20;;
20611;SDS011;10465;42.686;23.364;2023-05-16T06:44:18;21.08;;;14.73;;
20611;SDS011;10465;42.686;23.364;2023-05-16T06:46:44;19.85;;;14.48;;
20611;SDS011;10465;42.686;23.364;2023-05-16T06:49:09;19.00;;;12.38;;
20611;SDS011;10465;42.686;23.364;2023-05-16T06:51:34;17.65;;;12.18;;
20611;SDS011;10465;42.686;23.364;2023-05-16T06:54:00;19.45;;;12.35;;
20611;SDS011;10465;42.686;23.364;2023-05-16T06:56:26;17.50;;;13.25;;
20611;SDS011;10465;42.686;23.364;2023-05-16T06:58:52;20.58;;;13.18;;
20611;SDS011;10465;42.686;23.364;2023-05-16T07:01:18;18.40;;;12.63;;
20611;SDS011;10465;42.686;23.364;2023-05-16T07:03:43;18.30;;;12.63;;
20611;SDS011;10465;42.686;23.364;2023-05-16T07:06:09;20.42;;;13.00;;
20611;SDS011;10465;42.686;23.364;2023-05-16T07:08:34;23.02;;;12.50;;
20611;SDS011;10465;42.686;23.364;2023-05-16T07:11:01;19.33;;;12.63;;
20611;SDS011;10465;42.686;23.364;2023-05-16T07:13:26;14.68;;;11.35;;
20611;SDS011;10465;42.686;23.364;2023-05-16T07:15:52;15.45;;;11.68;;
20611;SDS011;10465;42.686;23.364;2023-05-16T07:18:18;17.00;;;13.35;;
20611;SDS011;10465;42.686;23.364;2023-05-16T07:20:43;15.45;;;11.88;;
20611;SDS011;10465;42.686;23.364;2023-05-16T07:23:09;15.95;;;11.77;;
20611;SDS011;10465;42.686;23.364;2023-05-16T07:25:35;17.63;;;11.57;;
20611;SDS011;10465;42.686;23.364;2023-05-16T07:28:01;17.35;;;11.35;;
20611;SDS011;10465;42.686;23.364;2023-05-16T07:30:27;15.60;;;12.07;;
20611;SDS011;10465;42.686;23.364;2023-05-16T07:32:52;19.13;;;12.02;;
20611;SDS011;10465;42.686;23.364;2023-05-16T07:35:18;17.58;;;11.65;;
20611;SDS011;10465;42.686;23.364;2023-05-16T07:37:43;14.55;;;11.27;;
20611;SDS011;10465;42.686;23.364;2023-05-16T07:40:09;15.20;;;11.45;;
20611;SDS011;10465;42.686;23.364;2023-05-16T07:42:35;15.98;;;11.57;;
20611;SDS011;10465;42.686;23.364;2023-05-16T07:45:01;16.92;;;12.07;;
20611;SDS011;10465;42.686;23.364;2023-05-16T07:47:26;27.65;;;12.18;;
20611;SDS011;10465;42.686;23.364;2023-05-16T07:49:52;14.00;;;11.85;;
20611;SDS011;10465;42.686;23.364;2023-05-16T07:52:17;17.85;;;12.45;;
20611;SDS011;10465;42.686;23.364;2023-05-16T07:54:45;18.27;;;12.60;;
20611;SDS011;10465;42.686;23.364;2023-05-16T07:57:12;16.60;;;12.82;;
20611;SDS011;10465;42.686;23.364;2023-05-16T07:59:38;15.65;;;11.30;;
20611;SDS011;10465;42.686;23.364;2023-05-16T08:02:04;16.40;;;11.43;;
20611;SDS011;10465;42.686;23.364;2023-05-16T08:04:30;14.98;;;11.63;;
20611;SDS011;10465;42.686;23.364;2023-05-16T08:06:55;14.45;;;11.82;;
20611;SDS011;10465;42.686;23.364;2023-05-16T08:09:20;15.50;;;11.50;;
20611;SDS011;10465;42.686;23.364;2023-05-16T08:11:46;16.58;;;11.30;;
20611;SDS011;10465;42.686;23.364;2023-05-16T08:14:11;17.40;;;11.90;;
20611;SDS011;10465;42.686;23.364;2023-05-16T08:16:37;16.67;;;12.55;;
20611;SDS011;10465;42.686;23.364;2023-05-16T08:19:02;20.70;;;13.32;;
20611;SDS011;10465;42.686;23.364;2023-05-16T08:21:28;20.23;;;12.88;;
20611;SDS011;10465;42.686;23.364;2023-05-16T08:23:54;17.60;;;12.10;;
20611;SDS011;10465;42.686;23.364;2023-05-16T08:26:20;15.77;;;12.75;;
20611;SDS011;10465;42.686;23.364;2023-05-16T08:28:45;16.85;;;12.20;;
20611;SDS011;10465;42.686;23.364;2023-05-16T08:31:13;22.38;;;13.02;;
20611;SDS011;10465;42.686;23.364;2023-05-16T08:33:38;15.30;;;11.90;;
20611;SDS011;10465;42.686;23.364;2023-05-16T08:36:04;21.85;;;12.13;;
20611;SDS011;10465;42.686;23.364;2023-05-16T08:38:30;16.70;;;11.50;;
20611;SDS011;10465;42.686;23.364;2023-05-16T08:40:55;15.98;;;11.73;;
20611;SDS011;10465;42.686;23.364;2023-05-16T08:43:21;16.85;;;11.35;;
20611;SDS011;10465;42.686;23.364;2023-05-16T08:45:47;14.90;;;11.40;;
20611;SDS011;10465;42.686;23.364;2023-05-16T08:48:13;18.85;;;11.32;;
20611;SDS011;10465;42.686;23.364;2023-05-16T08:50:41;12.93;;;10.73;;
20611;SDS011;10465;42.686;23.364;2023-05-16T08:53:08;16.40;;;12.13;;
20611;SDS011;10465;42.686;23.364;2023-05-16T08:55:34;15.30;;;11.32;;
20611;SDS011;10465;42.686;23.364;2023-05-16T08:58:00;19.80;;;11.73;;
20611;SDS011;10465;42.686;23.364;2023-05-16T09:00:26;14.95;;;11.15;;
20611;SDS011;10465;42.686;23.364;2023-05-16T09:02:52;15.10;;;10.75;;
20611;SDS011;10465;42.686;23.364;2023-05-16T09:05:17;14.13;;;11.32;;
20611;SDS011;10465;42.686;23.364;2023-05-16T09:07:43;20.52;;;11.40;;
20611;SDS011;10465;42.686;23.364;2023-05-16T09:10:10;15.73;;;11.52;;
20611;SDS011;10465;42.686;23.364;2023-05-16T09:12:36;16.90;;;11.10;;
20611;SDS011;10465;42.686;23.364;2023-05-16T09:15:03;15.52;;;10.52;;
20611;SDS011;10465;42.686;23.364;2023-05-16T09:17:37;12.18;;;9.52;;
20611;SDS011;10465;42.686;23.364;2023-05-16T09:20:13;15.25;;;10.10;;
20611;SDS011;10465;42.686;23.364;2023-05-16T09:22:40;14.60;;;10.25;;
20611;SDS011;10465;42.686;23.364;2023-05-16T09:25:16;20.77;;;10.73;;
20611;SDS011;10465;42.686;23.364;2023-05-16T09:27:42;16.65;;;9.98;;
20611;SDS011;10465;42.686;23.364;2023-05-16T09:30:08;13.18;;;11.25;;
20611;SDS011;10465;42.686;23.364;2023-05-16T09:32:33;14.02;;;10.52;;
20611;SDS011;10465;42.686;23.364;2023-05-16T09:34:59;15.82;;;11.23;;
20611;SDS011;10465;42.686;23.364;2023-05-16T09:37:24;19.17;;;11.05;;
20611;SDS011;10465;42.686;23.364;2023-05-16T09:39:50;14.93;;;10.93;;
20611;SDS011;10465;42.686;23.364;2023-05-16T09:42:19;14.40;;;11.32;;
20611;SDS011;10465;42.686;23.364;2023-05-16T09:44:45;17.48;;;10.80;;
20611;SDS011;10465;42.686;23.364;2023-05-16T09:47:13;16.63;;;10.68;;
20611;SDS011;10465;42.686;23.364;2023-05-16T09:49:40;19.63;;;10.18;;
20611;SDS011;10465;42.686;23.364;2023-05-16T09:52:06;18.35;;;10.00;;
20611;SDS011;10465;42.686;23.364;2023-05-16T09:54:32;14.98;;;9.65;;
20611;SDS011;10465;42.686;23.364;2023-05-16T09:56:58;13.88;;;9.73;;
20611;SDS011;10465;42.686;23.364;2023-05-16T09:59:24;15.25;;;9.90;;
20611;SDS011;10465;42.686;23.364;2023-05-16T10:01:52;15.65;;;9.57;;
20611;SDS011;10465;42.686;23.364;2023-05-16T10:04:18;15.50;;;10.30;;
20611;SDS011;10465;42.686;23.364;2023-05-16T10:06:44;15.77;;;9.57;;
20611;SDS011;10465;42.686;23.364;2023-05-16T10:09:10;17.05;;;9.85;;
20611;SDS011;10465;42.686;23.364;2023-05-16T10:11:37;15.43;;;10.43;;
20611;SDS011;10465;42.686;23.364;2023-05-16T10:14:06;12.57;;;9.20;;
20611;SDS011;10465;42.686;23.364;2023-05-16T10:16:33;15.80;;;10.20;;
20611;SDS011;10465;42.686;23.364;2023-05-16T10:18:59;14.48;;;9.57;;
20611;SDS011;10465;42.686;23.364;2023-05-16T10:21:27;15.63;;;9.77;;
20611;SDS011;10465;42.686;23.364;2023-05-16T10:23:55;13.13;;;9.60;;
20611;SDS011;10465;42.686;23.364;2023-05-16T10:26:22;13.57;;;9.95;;
20611;SDS011;10465;42.686;23.364;2023-05-16T10:28:50;14.95;;;9.68;;
20611;SDS011;10465;42.686;23.364;2023-05-16T10:31:16;11.95;;;10.10;;
20611;SDS011;10465;42.686;23.364;2023-05-16T10:33:42;13.43;;;10.20;;
20611;SDS011;10465;42.686;23.364;2023-05-16T10:36:08;14.25;;;9.15;;
20611;SDS011;10465;42.686;23.364;2023-05-16T10:38:34;11.68;;;9.43;;
20611;SDS011;10465;42.686;23.364;2023-05-16T10:41:01;13.18;;;10.02;;
20611;SDS011;10465;42.686;23.364;2023-05-16T10:43:30;18.15;;;8.77;;
20611;SDS011;10465;42.686;23.364;2023-05-16T10:46:07;13.18;;;9.43;;
20611;SDS011;10465;42.686;23.364;2023-05-16T10:48:38;14.50;;;9.20;;
20611;SDS011;10465;42.686;23.364;2023-05-16T10:54:09;12.35;;;8.77;;
20611;SDS011;10465;42.686;23.364;2023-05-16T10:56:37;14.45;;;9.15;;
20611;SDS011;10465;42.686;23.364;2023-05-16T10:59:03;14.65;;;8.90;;
20611;SDS011;10465;42.686;23.364;2023-05-16T11:01:30;12.25;;;9.93;;
20611;SDS011;10465;42.686;23.364;2023-05-16T11:04:00;13.80;;;10.95;;
20611;SDS011;10465;42.686;23.364;2023-05-16T11:06:28;14.43;;;11.00;;
20611;SDS011;10465;42.686;23.364;2023-05-16T11:11:37;17.90;;;10.00;;
20611;SDS011;10465;42.686;23.364;2023-05-16T11:14:16;15.40;;;9.85;;
20611;SDS011;10465;42.686;23.364;2023-05-16T11:16:58;16.42;;;10.05;;
20611;SDS011;10465;42.686;23.364;2023-05-16T11:22:10;15.02;;;9.88;;
20611;SDS011;10465;42.686;23.364;2023-05-16T11:24:37;13.75;;;10.40;;
20611;SDS011;10465;42.686;23.364;2023-05-16T11:27:03;14.45;;;11.00;;
20611;SDS011;10465;42.686;23.364;2023-05-16T11:29:30;22.85;;;11.07;;
20611;SDS011;10465;42.686;23.364;2023-05-16T11:31:58;14.95;;;10.80;;
20611;SDS011;10465;42.686;23.364;2023-05-16T11:34:24;15.90;;;11.95;;
20611;SDS011;10465;42.686;23.364;2023-05-16T11:36:50;16.30;;;10.95;;
20611;SDS011;10465;42.686;23.364;2023-05-16T11:39:16;16.42;;;10.70;;
20611;SDS011;10465;42.686;23.364;2023-05-16T11:41:43;15.80;;;10.70;;
20611;SDS011;10465;42.686;23.364;2023-05-16T11:44:10;16.77;;;12.02;;
20611;SDS011;10465;42.686;23.364;2023-05-16T11:46:37;54.20;;;20.30;;
20611;SDS011;10465;42.686;23.364;2023-05-16T11:49:05;33.83;;;18.02;;
20611;SDS011;10465;42.686;23.364;2023-05-16T11:51:31;34.30;;;15.63;;
20611;SDS011;10465;42.686;23.364;2023-05-16T11:53:59;21.73;;;11.70;;
20611;SDS011;10465;42.686;23.364;2023-05-16T11:56:26;26.60;;;12.80;;
20611;SDS011;10465;42.686;23.364;2023-05-16T11:58:51;38.58;;;13.32;;
20611;SDS011;10465;42.686;23.364;2023-05-16T12:01:17;47.00;;;14.35;;
20611;SDS011;10465;42.686;23.364;2023-05-16T12:03:43;16.65;;;11.23;;
20611;SDS011;10465;42.686;23.364;2023-05-16T12:06:08;16.30;;;9.75;;
20611;SDS011;10465;42.686;23.364;2023-05-16T12:08:34;16.63;;;10.65;;
20611;SDS011;10465;42.686;23.364;2023-05-16T12:10:59;18.00;;;9.38;;
20611;SDS011;10465;42.686;23.364;2023-05-16T12:13:25;20.73;;;10.88;;
20611;SDS011;10465;42.686;23.364;2023-05-16T12:15:51;14.35;;;8.63;;
20611;SDS011;10465;42.686;23.364;2023-05-16T12:18:17;20.73;;;11.25;;
20611;SDS011;10465;42.686;23.364;2023-05-16T12:20:43;23.20;;;14.68;;
20611;SDS011;10465;42.686;23.364;2023-05-16T12:23:09;21.27;;;9.63;;
20611;SDS011;10465;42.686;23.364;2023-05-16T12:25:36;15.20;;;8.85;;
20611;SDS011;10465;42.686;23.364;2023-05-16T12:28:07;12.93;;;8.63;;
20611;SDS011;10465;42.686;23.364;2023-05-16T12:30:34;12.23;;;8.13;;
20611;SDS011;10465;42.686;23.364;2023-05-16T12:33:00;12.95;;;9.02;;
20611;SDS011;10465;42.686;23.364;2023-05-16T12:35:31;17.10;;;11.68;;
20611;SDS011;10465;42.686;23.364;2023-05-16T12:37:59;19.65;;;10.20;;
20611;SDS011;10465;42.686;23.364;2023-05-16T12:40:28;13.07;;;8.95;;
20611;SDS011;10465;42.686;23.364;2023-05-16T12:42:54;12.52;;;9.60;;
20611;SDS011;10465;42.686;23.364;2023-05-16T12:45:22;16.17;;;9.77;;
20611;SDS011;10465;42.686;23.364;2023-05-16T12:47:48;14.00;;;8.30;;
20611;SDS011;10465;42.686;23.364;2023-05-16T12:50:15;14.40;;;9.55;;
20611;SDS011;10465;42.686;23.364;2023-05-16T12:52:50;17.95;;;9.40;;
20611;SDS011;10465;42.686;23.364;2023-05-16T12:55:20;19.55;;;10.50;;
20611;SDS011;10465;42.686;23.364;2023-05-16T12:57:47;15.40;;;10.05;;
20611;SDS011;10465;42.686;23.364;2023-05-16T13:00:14;14.63;;;10.35;;
20611;SDS011;10465;42.686;23.364;2023-05-16T13:02:45;19.77;;;12.95;;
20611;SDS011;10465;42.686;23.364;2023-05-16T13:05:11;13.65;;;10.93;;
20611;SDS011;10465;42.686;23.364;2023-05-16T13:07:37;18.60;;;13.13;;
20611;SDS011;10465;42.686;23.364;2023-05-16T13:10:07;17.00;;;10.98;;
20611;SDS011;10465;42.686;23.364;2023-05-16T13:12:37;15.27;;;11.10;;
20611;SDS011;10465;42.686;23.364;2023-05-16T13:15:04;22.70;;;11.10;;
20611;SDS011;10465;42.686;23.364;2023-05-16T13:17:31;20.60;;;11.32;;
20611;SDS011;10465;42.686;23.364;2023-05-16T13:20:01;25.73;;;11.55;;
20611;SDS011;10465;42.686;23.364;2023-05-16T13:22:29;17.77;;;11.05;;
20611;SDS011;10465;42.686;23.364;2023-05-16T13:24:54;20.67;;;10.70;;
20611;SDS011;10465;42.686;23.364;2023-05-16T13:27:20;17.85;;;9.90;;
20611;SDS011;10465;42.686;23.364;2023-05-16T13:29:45;18.52;;;10.50;;
20611;SDS011;10465;42.686;23.364;2023-05-16T13:32:11;27.15;;;14.18;;
20611;SDS011;10465;42.686;23.364;2023-05-16T13:34:36;21.88;;;11.05;;
20611;SDS011;10465;42.686;23.364;2023-05-16T13:37:02;20.13;;;11.05;;
20611;SDS011;10465;42.686;23.364;2023-05-16T13:39:28;20.70;;;10.40;;
20611;SDS011;10465;42.686;23.364;2023-05-16T13:41:53;13.30;;;9.70;;
20611;SDS011;10465;42.686;23.364;2023-05-16T13:44:19;17.73;;;11.00;;
20611;SDS011;10465;42.686;23.364;2023-05-16T13:46:45;15.32;;;9.63;;
20611;SDS011;10465;42.686;23.364;2023-05-16T13:49:11;15.55;;;9.02;;
20611;SDS011;10465;42.686;23.364;2023-05-16T13:51:36;17.80;;;9.73;;
20611;SDS011;10465;42.686;23.364;2023-05-16T13:54:01;15.68;;;10.27;;
20611;SDS011;10465;42.686;23.364;2023-05-16T13:56:27;20.35;;;10.48;;
20611;SDS011;10465;42.686;23.364;2023-05-16T13:58:53;17.20;;;11.43;;
20611;SDS011;10465;42.686;23.364;2023-05-16T14:01:18;20.77;;;10.65;;
20611;SDS011;10465;42.686;23.364;2023-05-16T14:03:43;21.13;;;10.65;;
20611;SDS011;10465;42.686;23.364;2023-05-16T14:06:09;21.50;;;10.43;;
20611;SDS011;10465;42.686;23.364;2023-05-16T14:08:35;19.23;;;12.55;;
20611;SDS011;10465;42.686;23.364;2023-05-16T14:11:00;20.20;;;10.70;;
20611;SDS011;10465;42.686;23.364;2023-05-16T14:13:26;16.95;;;11.25;;
20611;SDS011;10465;42.686;23.364;2023-05-16T14:15:52;19.40;;;11.38;;
20611;SDS011;10465;42.686;23.364;2023-05-16T14:18:17;24.92;;;12.30;;
20611;SDS011;10465;42.686;23.364;2023-05-16T14:20:43;18.40;;;12.05;;
20611;SDS011;10465;42.686;23.364;2023-05-16T14:23:08;19.33;;;11.57;;
20611;SDS011;10465;42.686;23.364;2023-05-16T14:25:34;22.55;;;11.57;;
20611;SDS011;10465;42.686;23.364;2023-05-16T14:28:00;24.33;;;14.45;;